Meerhout, Belgium
Current Conditions -  °F | °C
As of 12:25 AM on Sunday 26 Oct 2014 (Local Time) from EBDT Reporting Station
Overcast Overcast  
Wind Chill: 52°   Ceiling: 4300
Heat Index: 52°   Visibility: 6mi
Dew Point: 50°   Wind: 2mph
Humidity: 94%   Direction: NA
Pressure: 30.21"   Gusts: NA
Location:  51.13°N, 5.08°E
Report Text: EBDT 252225Z AUTO VRB02KT 9999 OVC043/// 11/10 Q1023 BLU
Loading
Personal Weather Stations






























Interactive Weather Map
Tropical Storm Tracking
New forecast layout! Learn more

10-Day Weather Forecast

Advertisements
Track Severe Weather on mobile